createdAt,value
2022-09-25T00:00:10.565Z,26.58
2022-09-25T00:05:12.944Z,27.33
2022-09-25T00:10:15.300Z,27.15
2022-09-25T00:15:18.099Z,29.27
2022-09-25T00:20:20.877Z,27.48
2022-09-25T00:25:26.280Z,25.95
2022-09-25T00:30:28.652Z,24.88
2022-09-25T00:35:31.054Z,22.55
2022-09-25T00:40:33.457Z,23.58
2022-09-25T00:45:35.855Z,23.85
2022-09-25T00:50:54.127Z,23.35
2022-09-25T00:55:57.471Z,22.38
2022-09-25T01:01:00.318Z,23.48
2022-09-25T01:06:02.925Z,20.48
2022-09-25T01:11:05.536Z,20.40
2022-09-25T01:16:10.720Z,19.08
2022-09-25T01:21:25.131Z,20.95
2022-09-25T01:27:17.201Z,18.40
2022-09-25T01:32:26.703Z,18.52
2022-09-25T01:38:11.453Z,17.95
2022-09-25T01:43:17.569Z,18.33
2022-09-25T01:48:24.002Z,17.70
2022-09-25T01:53:32.591Z,17.27
2022-09-25T01:58:43.842Z,17.48
2022-09-25T02:03:52.419Z,17.80
2022-09-25T02:09:02.211Z,15.18
2022-09-25T02:14:32.032Z,16.05
2022-09-25T02:19:52.953Z,15.30
2022-09-25T02:25:04.102Z,17.58
2022-09-25T02:30:07.027Z,17.42
2022-09-25T02:35:09.790Z,14.90
2022-09-25T02:40:12.215Z,15.02
2022-09-25T02:45:39.130Z,16.15
2022-09-25T02:51:29.211Z,15.35
2022-09-25T02:56:43.428Z,14.90
2022-09-25T03:01:48.183Z,13.80
2022-09-25T03:06:51.128Z,13.60
2022-09-25T03:11:55.212Z,14.80
2022-09-25T03:16:58.948Z,14.27
2022-09-25T03:22:02.088Z,13.65
2022-09-25T03:27:04.490Z,14.25
2022-09-25T03:32:06.846Z,15.88
2022-09-25T03:37:09.336Z,14.27
2022-09-25T03:42:11.724Z,14.50
2022-09-25T03:47:14.215Z,16.98
2022-09-25T03:52:16.600Z,15.55
2022-09-25T03:57:18.943Z,15.00
2022-09-25T04:02:21.338Z,14.43
2022-09-25T04:07:24.867Z,14.15
2022-09-25T04:12:27.191Z,13.98
2022-09-25T04:17:29.799Z,14.85
2022-09-25T04:22:32.150Z,13.45
2022-09-25T04:27:34.555Z,15.40
2022-09-25T04:32:55.560Z,14.85
2022-09-25T04:37:57.881Z,15.70
2022-09-25T04:43:01.686Z,14.52
2022-09-25T04:48:04.827Z,15.25
2022-09-25T04:53:07.181Z,15.18
2022-09-25T04:58:11.209Z,15.82
2022-09-25T05:03:13.866Z,15.68
2022-09-25T05:08:16.645Z,16.20
2022-09-25T05:13:19.099Z,17.23
2022-09-25T05:18:24.253Z,18.50
2022-09-25T05:23:26.634Z,16.77
2022-09-25T05:28:30.513Z,16.88
2022-09-25T05:33:33.940Z,15.80
2022-09-25T05:38:38.786Z,17.10
2022-09-25T05:43:50.297Z,20.15
2022-09-25T05:48:52.756Z,18.52
2022-09-25T05:53:55.940Z,19.45
2022-09-25T05:58:58.834Z,18.92
2022-09-25T06:04:01.306Z,16.95
2022-09-25T06:09:03.704Z,17.23
2022-09-25T06:14:06.032Z,52.80
2022-09-25T06:19:08.781Z,22.48
2022-09-25T06:24:11.463Z,18.52
2022-09-25T06:29:13.900Z,18.13
2022-09-25T06:34:16.259Z,19.15
2022-09-25T06:39:18.650Z,20.60
2022-09-25T06:44:23.062Z,19.70
2022-09-25T06:49:25.457Z,19.65
2022-09-25T06:54:31.411Z,19.08
2022-09-25T06:59:33.821Z,20.50
2022-09-25T07:04:36.717Z,21.77
2022-09-25T07:09:39.098Z,20.23
2022-09-25T07:14:43.171Z,21.25
2022-09-25T07:19:45.481Z,21.08
2022-09-25T07:24:47.854Z,20.00
2022-09-25T07:29:50.241Z,21.20
2022-09-25T07:34:52.745Z,20.45
2022-09-25T07:39:55.446Z,20.40
2022-09-25T07:44:57.901Z,21.05
2022-09-25T07:50:00.599Z,20.73
2022-09-25T07:55:03.017Z,20.48
2022-09-25T08:00:06.214Z,21.05
2022-09-25T08:05:14.561Z,19.35
2022-09-25T08:10:17.091Z,20.52
2022-09-25T08:15:19.486Z,18.58
2022-09-25T08:20:22.065Z,20.73
2022-09-25T08:25:24.494Z,20.00
2022-09-25T08:30:26.876Z,19.48
2022-09-25T08:35:29.213Z,20.65
2022-09-25T08:40:32.424Z,21.17
2022-09-25T08:45:59.870Z,21.73
2022-09-25T08:51:05.651Z,15.27
2022-09-25T08:56:20.463Z,19.08
2022-09-25T09:01:28.108Z,24.98
2022-09-25T09:06:30.807Z,21.02
2022-09-25T09:11:37.622Z,18.13
2022-09-25T09:16:47.791Z,19.10
2022-09-25T09:22:33.268Z,18.05
2022-09-25T09:27:54.141Z,16.83
2022-09-25T09:32:59.504Z,17.42
2022-09-25T09:38:15.066Z,17.33
2022-09-25T09:43:57.638Z,16.30
2022-09-25T09:49:26.662Z,15.43
2022-09-25T09:55:01.288Z,15.43
2022-09-25T10:00:08.631Z,16.17
2022-09-25T10:05:29.631Z,18.08
2022-09-25T10:10:44.856Z,15.85
2022-09-25T10:15:52.789Z,15.05
2022-09-25T10:21:04.419Z,15.10
2022-09-25T10:26:30.909Z,15.50
2022-09-25T10:31:40.466Z,14.50
2022-09-25T10:36:46.163Z,16.80
2022-09-25T10:41:48.795Z,13.68
2022-09-25T10:47:09.884Z,11.68
2022-09-25T10:52:14.153Z,13.00
2022-09-25T10:57:35.440Z,11.20
2022-09-25T11:02:41.112Z,9.88
2022-09-25T11:07:55.841Z,9.70
2022-09-25T11:12:58.938Z,8.18
2022-09-25T11:18:01.343Z,8.52
2022-09-25T11:23:13.400Z,8.30
2022-09-25T11:28:34.959Z,8.70
2022-09-25T11:33:44.074Z,9.30
2022-09-25T11:39:13.618Z,10.30
2022-09-25T11:44:28.756Z,10.43
2022-09-25T11:49:34.552Z,9.10
2022-09-25T11:54:43.825Z,9.52
2022-09-25T12:00:17.763Z,9.65
2022-09-25T12:05:48.295Z,10.40
2022-09-25T12:11:13.749Z,11.75
2022-09-25T12:16:24.035Z,10.65
2022-09-25T12:21:34.165Z,9.98
2022-09-25T12:26:45.921Z,10.43
2022-09-25T12:32:16.301Z,10.65
2022-09-25T12:37:27.382Z,127.13
2022-09-25T12:42:40.803Z,26.40
2022-09-25T12:47:51.336Z,11.80
2022-09-25T12:53:06.157Z,11.32
2022-09-25T12:58:30.126Z,11.27
2022-09-25T13:04:15.691Z,12.15
2022-09-25T13:09:25.007Z,11.27
2022-09-25T13:14:33.180Z,12.88
2022-09-25T13:19:35.582Z,13.07
2022-09-25T13:24:55.967Z,11.32
2022-09-25T13:30:00.952Z,11.77
2022-09-25T13:35:06.144Z,12.23
2022-09-25T13:40:36.334Z,11.80
2022-09-25T13:45:39.819Z,13.63
2022-09-25T13:50:44.534Z,13.25
2022-09-25T13:55:56.018Z,12.48
2022-09-25T14:00:59.849Z,15.52
2022-09-25T14:06:02.959Z,15.52
2022-09-25T14:11:09.815Z,41.25
2022-09-25T14:16:29.397Z,28.85
2022-09-25T14:21:34.589Z,12.10
2022-09-25T14:26:36.906Z,12.13
2022-09-25T14:31:58.399Z,11.38
2022-09-25T14:37:10.177Z,11.52
2022-09-25T14:42:16.761Z,13.15
2022-09-25T14:47:20.559Z,12.52
2022-09-25T14:52:26.438Z,12.73
2022-09-25T14:57:32.587Z,11.48
2022-09-25T15:02:41.841Z,12.68
2022-09-25T15:07:46.487Z,12.77
2022-09-25T15:12:49.399Z,11.32
2022-09-25T15:17:59.005Z,14.48
2022-09-25T15:23:14.218Z,12.25
2022-09-25T15:28:19.457Z,10.88
2022-09-25T15:33:34.096Z,13.52
2022-09-25T15:38:38.848Z,15.68
2022-09-25T15:43:41.302Z,14.73
2022-09-25T15:48:53.529Z,16.27
2022-09-25T15:53:58.576Z,14.13
2022-09-25T15:59:07.939Z,11.95
2022-09-25T16:04:38.664Z,12.48
2022-09-25T16:09:47.618Z,13.15
2022-09-25T16:14:50.700Z,14.50
2022-09-25T16:20:25.038Z,15.52
2022-09-25T16:25:32.245Z,14.43
2022-09-25T16:30:35.392Z,14.32
2022-09-25T16:36:05.235Z,13.90
2022-09-25T16:41:07.226Z,15.68
2022-09-25T16:46:20.396Z,18.88
2022-09-25T16:51:24.227Z,17.05
2022-09-25T16:56:30.370Z,17.25
2022-09-25T17:01:32.814Z,15.10
2022-09-25T17:06:40.921Z,15.55
2022-09-25T17:11:46.979Z,10.98
2022-09-25T17:16:53.316Z,16.40
2022-09-25T17:21:56.285Z,18.10
2022-09-25T17:26:58.957Z,23.98
2022-09-25T17:32:01.548Z,19.65
2022-09-25T17:37:03.944Z,21.90
2022-09-25T17:42:06.471Z,25.88
2022-09-25T17:47:10.810Z,26.20
2022-09-25T17:52:15.219Z,27.13
2022-09-25T17:57:18.184Z,26.73
2022-09-25T18:02:20.649Z,26.23
2022-09-25T18:07:23.380Z,28.77
2022-09-25T18:12:25.961Z,27.88
2022-09-25T18:17:28.428Z,30.15
2022-09-25T18:22:30.893Z,34.72
2022-09-25T18:27:34.327Z,34.08
2022-09-25T18:32:36.694Z,32.05
2022-09-25T18:37:39.009Z,33.08
2022-09-25T18:42:41.738Z,29.08
2022-09-25T18:47:44.212Z,29.65
2022-09-25T18:52:46.669Z,32.40
2022-09-25T18:57:49.074Z,30.67
2022-09-25T19:02:51.650Z,26.65
2022-09-25T19:07:54.961Z,27.38
2022-09-25T19:12:57.291Z,27.10
2022-09-25T19:17:59.901Z,35.50
2022-09-25T19:23:03.147Z,29.13
2022-09-25T19:28:05.518Z,30.15
2022-09-25T19:33:07.872Z,35.25
2022-09-25T19:38:12.751Z,31.88
2022-09-25T19:43:15.558Z,31.45
2022-09-25T19:48:18.085Z,30.70
2022-09-25T19:53:20.694Z,34.70
2022-09-25T19:58:23.826Z,35.42
2022-09-25T20:03:26.262Z,33.88
2022-09-25T20:08:28.780Z,37.28
2022-09-25T20:13:31.169Z,34.33
2022-09-25T20:18:33.572Z,32.67
2022-09-25T20:23:36.431Z,35.88
2022-09-25T20:28:40.021Z,34.17
2022-09-25T20:33:43.167Z,31.65
2022-09-25T20:38:49.955Z,33.47
2022-09-25T20:43:55.203Z,27.17
2022-09-25T20:48:58.635Z,36.53
2022-09-25T20:54:03.354Z,36.97
2022-09-25T20:59:06.217Z,38.30
2022-09-25T21:04:08.888Z,44.15
2022-09-25T21:09:25.793Z,43.83
2022-09-25T21:14:29.104Z,43.63
2022-09-25T21:19:32.085Z,45.00
2022-09-25T21:24:35.254Z,51.15
2022-09-25T21:29:37.703Z,47.13
2022-09-25T21:34:40.055Z,48.15
2022-09-25T21:39:42.406Z,44.85
2022-09-25T21:44:46.154Z,45.28
2022-09-25T21:49:49.063Z,46.35
2022-09-25T21:54:51.688Z,43.63
2022-09-25T21:59:54.107Z,45.08
2022-09-25T22:04:56.484Z,44.30
2022-09-25T22:09:59.179Z,39.47
2022-09-25T22:15:01.741Z,40.67
2022-09-25T22:20:05.573Z,39.60
2022-09-25T22:25:08.711Z,38.85
2022-09-25T22:30:11.659Z,37.40
2022-09-25T22:35:14.052Z,41.70
2022-09-25T22:40:16.495Z,42.92
2022-09-25T22:45:18.929Z,40.80
2022-09-25T22:50:21.411Z,40.10
2022-09-25T22:55:26.285Z,42.08
2022-09-25T23:00:28.704Z,40.50
2022-09-25T23:05:31.238Z,44.08
2022-09-25T23:11:02.593Z,39.17
2022-09-25T23:15:58.730Z,41.33
2022-09-25T23:21:01.144Z,41.08
2022-09-25T23:26:08.814Z,40.22
2022-09-25T23:31:15.417Z,40.33
2022-09-25T23:36:23.259Z,38.73
2022-09-25T23:41:29.134Z,38.50
2022-09-25T23:46:34.290Z,38.85
2022-09-25T23:51:37.179Z,35.15
2022-09-25T23:56:41.180Z,37.05
